sensor_id;sensor_type;location;lat;lon;timestamp;P1;durP1;ratioP1;P2;durP2;ratioP2
41141;SDS011;63666;52.284;20.890;2024-03-02T00:01:12;12.30;;;11.00;;
41141;SDS011;63666;52.284;20.890;2024-03-02T00:03:00;12.20;;;11.00;;
41141;SDS011;63666;52.284;20.890;2024-03-02T00:04:46;12.20;;;10.90;;
41141;SDS011;63666;52.284;20.890;2024-03-02T00:06:38;13.40;;;10.80;;
41141;SDS011;63666;52.284;20.890;2024-03-02T00:08:26;12.40;;;11.10;;
41141;SDS011;63666;52.284;20.890;2024-03-02T00:10:19;12.30;;;11.00;;
41141;SDS011;63666;52.284;20.890;2024-03-02T00:12:10;12.70;;;11.00;;
41141;SDS011;63666;52.284;20.890;2024-03-02T00:13:56;11.90;;;10.70;;
41141;SDS011;63666;52.284;20.890;2024-03-02T00:15:48;12.90;;;10.70;;
41141;SDS011;63666;52.284;20.890;2024-03-02T00:17:40;12.10;;;10.80;;
41141;SDS011;63666;52.284;20.890;2024-03-02T00:19:27;12.30;;;11.00;;
41141;SDS011;63666;52.284;20.890;2024-03-02T00:21:13;12.20;;;10.90;;
41141;SDS011;63666;52.284;20.890;2024-03-02T00:23:05;11.60;;;10.40;;
41141;SDS011;63666;52.284;20.890;2024-03-02T00:24:53;13.00;;;10.30;;
41141;SDS011;63666;52.284;20.890;2024-03-02T00:26:38;12.30;;;11.00;;
41141;SDS011;63666;52.284;20.890;2024-03-02T00:28:25;12.20;;;10.90;;
41141;SDS011;63666;52.284;20.890;2024-03-02T00:30:39;12.40;;;11.10;;
41141;SDS011;63666;52.284;20.890;2024-03-02T00:32:44;13.10;;;11.10;;
41141;SDS011;63666;52.284;20.890;2024-03-02T00:34:31;11.70;;;10.30;;
41141;SDS011;63666;52.284;20.890;2024-03-02T00:36:26;12.20;;;10.90;;
41141;SDS011;63666;52.284;20.890;2024-03-02T00:38:13;11.90;;;10.70;;
41141;SDS011;63666;52.284;20.890;2024-03-02T00:40:00;11.90;;;10.60;;
41141;SDS011;63666;52.284;20.890;2024-03-02T00:41:50;12.10;;;10.60;;
41141;SDS011;63666;52.284;20.890;2024-03-02T00:43:43;11.80;;;10.60;;
41141;SDS011;63666;52.284;20.890;2024-03-02T00:45:31;11.30;;;10.00;;
41141;SDS011;63666;52.284;20.890;2024-03-02T00:47:16;11.60;;;10.40;;
41141;SDS011;63666;52.284;20.890;2024-03-02T00:49:05;11.70;;;10.50;;
41141;SDS011;63666;52.284;20.890;2024-03-02T00:51:03;11.40;;;10.10;;
41141;SDS011;63666;52.284;20.890;2024-03-02T00:52:51;11.20;;;10.10;;
41141;SDS011;63666;52.284;20.890;2024-03-02T00:54:40;11.60;;;9.80;;
41141;SDS011;63666;52.284;20.890;2024-03-02T00:56:28;11.70;;;10.30;;
41141;SDS011;63666;52.284;20.890;2024-03-02T00:58:16;11.40;;;10.20;;
41141;SDS011;63666;52.284;20.890;2024-03-02T01:00:03;12.00;;;10.60;;
41141;SDS011;63666;52.284;20.890;2024-03-02T01:01:52;11.30;;;10.10;;
41141;SDS011;63666;52.284;20.890;2024-03-02T01:03:40;11.60;;;10.40;;
41141;SDS011;63666;52.284;20.890;2024-03-02T01:05:25;12.40;;;10.40;;
41141;SDS011;63666;52.284;20.890;2024-03-02T01:07:10;11.40;;;10.20;;
41141;SDS011;63666;52.284;20.890;2024-03-02T01:08:59;11.50;;;10.30;;
41141;SDS011;63666;52.284;20.890;2024-03-02T01:10:45;11.70;;;10.20;;
41141;SDS011;63666;52.284;20.890;2024-03-02T01:12:33;11.50;;;10.30;;
41141;SDS011;63666;52.284;20.890;2024-03-02T01:14:21;11.50;;;10.30;;
41141;SDS011;63666;52.284;20.890;2024-03-02T01:16:07;11.50;;;10.30;;
41141;SDS011;63666;52.284;20.890;2024-03-02T01:17:52;12.00;;;10.70;;
41141;SDS011;63666;52.284;20.890;2024-03-02T01:19:37;11.40;;;10.20;;
41141;SDS011;63666;52.284;20.890;2024-03-02T01:21:24;11.60;;;10.30;;
41141;SDS011;63666;52.284;20.890;2024-03-02T01:23:13;11.80;;;10.60;;
41141;SDS011;63666;52.284;20.890;2024-03-02T01:24:57;12.40;;;10.70;;
41141;SDS011;63666;52.284;20.890;2024-03-02T01:26:44;11.70;;;10.20;;
41141;SDS011;63666;52.284;20.890;2024-03-02T01:28:31;12.60;;;11.00;;
41141;SDS011;63666;52.284;20.890;2024-03-02T01:30:16;11.90;;;10.40;;
41141;SDS011;63666;52.284;20.890;2024-03-02T01:32:04;11.80;;;10.20;;
41141;SDS011;63666;52.284;20.890;2024-03-02T01:33:49;11.40;;;10.20;;
41141;SDS011;63666;52.284;20.890;2024-03-02T01:35:36;11.60;;;10.20;;
41141;SDS011;63666;52.284;20.890;2024-03-02T01:37:20;11.40;;;10.10;;
41141;SDS011;63666;52.284;20.890;2024-03-02T01:39:06;11.60;;;10.00;;
41141;SDS011;63666;52.284;20.890;2024-03-02T01:40:54;11.70;;;10.50;;
41141;SDS011;63666;52.284;20.890;2024-03-02T01:42:42;11.70;;;10.40;;
41141;SDS011;63666;52.284;20.890;2024-03-02T01:44:27;11.40;;;10.20;;
41141;SDS011;63666;52.284;20.890;2024-03-02T01:46:15;12.00;;;10.40;;
41141;SDS011;63666;52.284;20.890;2024-03-02T01:48:00;11.50;;;9.60;;
41141;SDS011;63666;52.284;20.890;2024-03-02T01:49:48;11.30;;;9.70;;
41141;SDS011;63666;52.284;20.890;2024-03-02T01:51:35;11.60;;;10.20;;
41141;SDS011;63666;52.284;20.890;2024-03-02T01:53:22;12.10;;;10.50;;
41141;SDS011;63666;52.284;20.890;2024-03-02T01:55:09;11.70;;;10.30;;
41141;SDS011;63666;52.284;20.890;2024-03-02T01:56:54;11.50;;;10.30;;
41141;SDS011;63666;52.284;20.890;2024-03-02T01:58:42;11.80;;;9.80;;
41141;SDS011;63666;52.284;20.890;2024-03-02T02:00:31;11.20;;;10.00;;
41141;SDS011;63666;52.284;20.890;2024-03-02T02:02:17;11.00;;;9.80;;
41141;SDS011;63666;52.284;20.890;2024-03-02T02:04:05;12.80;;;10.10;;
41141;SDS011;63666;52.284;20.890;2024-03-02T02:05:50;11.30;;;10.10;;
41141;SDS011;63666;52.284;20.890;2024-03-02T02:07:36;11.40;;;9.80;;
41141;SDS011;63666;52.284;20.890;2024-03-02T02:09:22;12.40;;;10.50;;
41141;SDS011;63666;52.284;20.890;2024-03-02T02:11:07;11.00;;;9.70;;
41141;SDS011;63666;52.284;20.890;2024-03-02T02:12:52;11.30;;;10.10;;
41141;SDS011;63666;52.284;20.890;2024-03-02T02:14:37;11.60;;;10.40;;
41141;SDS011;63666;52.284;20.890;2024-03-02T02:16:26;11.10;;;9.90;;
41141;SDS011;63666;52.284;20.890;2024-03-02T02:18:18;11.30;;;9.90;;
41141;SDS011;63666;52.284;20.890;2024-03-02T02:20:05;11.40;;;10.20;;
41141;SDS011;63666;52.284;20.890;2024-03-02T02:21:51;11.30;;;9.90;;
41141;SDS011;63666;52.284;20.890;2024-03-02T02:23:37;10.90;;;9.70;;
41141;SDS011;63666;52.284;20.890;2024-03-02T02:25:24;11.00;;;9.60;;
41141;SDS011;63666;52.284;20.890;2024-03-02T02:27:13;11.10;;;9.60;;
41141;SDS011;63666;52.284;20.890;2024-03-02T02:29:00;12.40;;;10.10;;
41141;SDS011;63666;52.284;20.890;2024-03-02T02:30:47;11.50;;;10.30;;
41141;SDS011;63666;52.284;20.890;2024-03-02T02:32:32;11.00;;;9.80;;
41141;SDS011;63666;52.284;20.890;2024-03-02T02:34:17;11.40;;;10.20;;
41141;SDS011;63666;52.284;20.890;2024-03-02T02:36:05;11.60;;;9.90;;
41141;SDS011;63666;52.284;20.890;2024-03-02T02:37:52;10.80;;;9.60;;
41141;SDS011;63666;52.284;20.890;2024-03-02T02:39:38;11.80;;;10.10;;
41141;SDS011;63666;52.284;20.890;2024-03-02T02:41:25;11.70;;;9.60;;
41141;SDS011;63666;52.284;20.890;2024-03-02T02:43:13;10.70;;;9.60;;
41141;SDS011;63666;52.284;20.890;2024-03-02T02:44:59;10.70;;;9.60;;
41141;SDS011;63666;52.284;20.890;2024-03-02T02:46:44;11.30;;;9.50;;
41141;SDS011;63666;52.284;20.890;2024-03-02T02:48:28;10.30;;;9.20;;
41141;SDS011;63666;52.284;20.890;2024-03-02T02:50:15;11.30;;;9.90;;
41141;SDS011;63666;52.284;20.890;2024-03-02T02:52:00;11.50;;;9.90;;
41141;SDS011;63666;52.284;20.890;2024-03-02T02:53:49;11.00;;;9.80;;
41141;SDS011;63666;52.284;20.890;2024-03-02T02:55:34;10.70;;;9.60;;
41141;SDS011;63666;52.284;20.890;2024-03-02T02:57:26;10.90;;;9.70;;
41141;SDS011;63666;52.284;20.890;2024-03-02T02:59:13;10.60;;;9.40;;
41141;SDS011;63666;52.284;20.890;2024-03-02T03:00:59;10.90;;;9.60;;
41141;SDS011;63666;52.284;20.890;2024-03-02T03:02:46;11.20;;;9.90;;
41141;SDS011;63666;52.284;20.890;2024-03-02T03:04:32;11.10;;;9.60;;
41141;SDS011;63666;52.284;20.890;2024-03-02T03:06:20;11.00;;;9.60;;
41141;SDS011;63666;52.284;20.890;2024-03-02T03:08:05;10.90;;;9.80;;
41141;SDS011;63666;52.284;20.890;2024-03-02T03:09:50;10.90;;;9.70;;
41141;SDS011;63666;52.284;20.890;2024-03-02T03:11:36;11.80;;;9.70;;
41141;SDS011;63666;52.284;20.890;2024-03-02T03:13:22;11.40;;;9.90;;
41141;SDS011;63666;52.284;20.890;2024-03-02T03:15:09;11.50;;;10.10;;
41141;SDS011;63666;52.284;20.890;2024-03-02T03:16:55;11.00;;;9.80;;
41141;SDS011;63666;52.284;20.890;2024-03-02T03:18:39;11.70;;;9.60;;
41141;SDS011;63666;52.284;20.890;2024-03-02T03:20:24;10.70;;;9.40;;
41141;SDS011;63666;52.284;20.890;2024-03-02T03:22:09;11.30;;;9.40;;
41141;SDS011;63666;52.284;20.890;2024-03-02T03:23:55;11.20;;;10.00;;
41141;SDS011;63666;52.284;20.890;2024-03-02T03:25:41;11.10;;;9.70;;
41141;SDS011;63666;52.284;20.890;2024-03-02T03:27:26;11.20;;;9.80;;
41141;SDS011;63666;52.284;20.890;2024-03-02T03:29:11;11.80;;;9.70;;
41141;SDS011;63666;52.284;20.890;2024-03-02T03:30:55;10.50;;;9.10;;
41141;SDS011;63666;52.284;20.890;2024-03-02T03:32:43;11.00;;;9.40;;
41141;SDS011;63666;52.284;20.890;2024-03-02T03:34:29;11.40;;;9.30;;
41141;SDS011;63666;52.284;20.890;2024-03-02T03:36:16;10.60;;;9.40;;
41141;SDS011;63666;52.284;20.890;2024-03-02T03:38:03;11.70;;;9.70;;
41141;SDS011;63666;52.284;20.890;2024-03-02T03:39:48;11.80;;;9.90;;
41141;SDS011;63666;52.284;20.890;2024-03-02T03:41:33;10.90;;;9.20;;
41141;SDS011;63666;52.284;20.890;2024-03-02T03:43:18;11.80;;;9.50;;
41141;SDS011;63666;52.284;20.890;2024-03-02T03:45:07;10.60;;;9.20;;
41141;SDS011;63666;52.284;20.890;2024-03-02T03:46:52;11.10;;;9.40;;
41141;SDS011;63666;52.284;20.890;2024-03-02T03:48:36;10.70;;;9.60;;
41141;SDS011;63666;52.284;20.890;2024-03-02T03:50:23;10.80;;;9.30;;
41141;SDS011;63666;52.284;20.890;2024-03-02T03:52:11;10.70;;;8.90;;
41141;SDS011;63666;52.284;20.890;2024-03-02T03:53:56;12.10;;;9.50;;
41141;SDS011;63666;52.284;20.890;2024-03-02T03:55:45;10.80;;;9.30;;
41141;SDS011;63666;52.284;20.890;2024-03-02T03:57:31;10.20;;;8.90;;
41141;SDS011;63666;52.284;20.890;2024-03-02T03:59:16;10.10;;;9.00;;
41141;SDS011;63666;52.284;20.890;2024-03-02T04:01:03;10.70;;;9.10;;
41141;SDS011;63666;52.284;20.890;2024-03-02T04:02:48;11.20;;;9.60;;
41141;SDS011;63666;52.284;20.890;2024-03-02T04:04:32;10.40;;;8.80;;
41141;SDS011;63666;52.284;20.890;2024-03-02T04:06:17;10.20;;;9.10;;
41141;SDS011;63666;52.284;20.890;2024-03-02T04:08:02;10.50;;;9.10;;
41141;SDS011;63666;52.284;20.890;2024-03-02T04:09:49;10.50;;;9.40;;
41141;SDS011;63666;52.284;20.890;2024-03-02T04:11:37;10.40;;;9.10;;
41141;SDS011;63666;52.284;20.890;2024-03-02T04:13:22;10.20;;;9.00;;
41141;SDS011;63666;52.284;20.890;2024-03-02T04:15:10;10.00;;;8.90;;
41141;SDS011;63666;52.284;20.890;2024-03-02T04:16:55;11.00;;;9.30;;
41141;SDS011;63666;52.284;20.890;2024-03-02T04:18:39;10.60;;;9.30;;
41141;SDS011;63666;52.284;20.890;2024-03-02T04:20:24;10.40;;;9.20;;
41141;SDS011;63666;52.284;20.890;2024-03-02T04:22:10;10.00;;;9.00;;
41141;SDS011;63666;52.284;20.890;2024-03-02T04:24:06;9.90;;;8.70;;
41141;SDS011;63666;52.284;20.890;2024-03-02T04:25:51;9.90;;;8.70;;
41141;SDS011;63666;52.284;20.890;2024-03-02T04:27:37;9.90;;;8.70;;
41141;SDS011;63666;52.284;20.890;2024-03-02T04:29:22;10.10;;;8.70;;
41141;SDS011;63666;52.284;20.890;2024-03-02T04:31:07;10.10;;;9.00;;
41141;SDS011;63666;52.284;20.890;2024-03-02T04:32:52;10.00;;;8.70;;
41141;SDS011;63666;52.284;20.890;2024-03-02T04:34:42;11.40;;;9.30;;
41141;SDS011;63666;52.284;20.890;2024-03-02T04:36:26;10.40;;;8.90;;
41141;SDS011;63666;52.284;20.890;2024-03-02T04:38:11;10.10;;;8.90;;
41141;SDS011;63666;52.284;20.890;2024-03-02T04:39:56;10.20;;;9.10;;
41141;SDS011;63666;52.284;20.890;2024-03-02T04:41:41;10.00;;;8.70;;
41141;SDS011;63666;52.284;20.890;2024-03-02T04:43:25;10.10;;;8.80;;
41141;SDS011;63666;52.284;20.890;2024-03-02T04:45:10;10.40;;;8.70;;
41141;SDS011;63666;52.284;20.890;2024-03-02T04:46:58;10.00;;;8.50;;
41141;SDS011;63666;52.284;20.890;2024-03-02T04:48:44;9.50;;;8.50;;
41141;SDS011;63666;52.284;20.890;2024-03-02T04:50:29;9.90;;;8.80;;
41141;SDS011;63666;52.284;20.890;2024-03-02T04:52:14;9.70;;;8.70;;
41141;SDS011;63666;52.284;20.890;2024-03-02T04:54:01;11.10;;;9.20;;
41141;SDS011;63666;52.284;20.890;2024-03-02T04:55:48;10.00;;;8.80;;
41141;SDS011;63666;52.284;20.890;2024-03-02T04:57:48;10.40;;;8.40;;
41141;SDS011;63666;52.284;20.890;2024-03-02T04:59:37;9.60;;;8.30;;
41141;SDS011;63666;52.284;20.890;2024-03-02T05:01:24;9.80;;;8.40;;
41141;SDS011;63666;52.284;20.890;2024-03-02T05:03:10;9.30;;;8.20;;
41141;SDS011;63666;52.284;20.890;2024-03-02T05:05:00;10.10;;;8.80;;
41141;SDS011;63666;52.284;20.890;2024-03-02T05:06:48;10.20;;;8.70;;
41141;SDS011;63666;52.284;20.890;2024-03-02T05:08:35;9.80;;;8.80;;
41141;SDS011;63666;52.284;20.890;2024-03-02T05:10:25;10.20;;;8.70;;
41141;SDS011;63666;52.284;20.890;2024-03-02T05:12:13;9.70;;;8.70;;
41141;SDS011;63666;52.284;20.890;2024-03-02T05:14:25;9.90;;;8.70;;
41141;SDS011;63666;52.284;20.890;2024-03-02T05:16:10;10.10;;;8.50;;
41141;SDS011;63666;52.284;20.890;2024-03-02T05:17:55;10.00;;;8.50;;
41141;SDS011;63666;52.284;20.890;2024-03-02T05:19:42;9.80;;;8.70;;
41141;SDS011;63666;52.284;20.890;2024-03-02T05:21:32;9.50;;;8.40;;
41141;SDS011;63666;52.284;20.890;2024-03-02T05:23:17;9.80;;;8.40;;
41141;SDS011;63666;52.284;20.890;2024-03-02T05:25:06;10.30;;;8.60;;
41141;SDS011;63666;52.284;20.890;2024-03-02T05:26:55;9.70;;;8.50;;
41141;SDS011;63666;52.284;20.890;2024-03-02T05:28:43;10.00;;;8.70;;
41141;SDS011;63666;52.284;20.890;2024-03-02T05:30:28;10.40;;;8.80;;
41141;SDS011;63666;52.284;20.890;2024-03-02T05:32:14;10.00;;;8.50;;
41141;SDS011;63666;52.284;20.890;2024-03-02T05:34:01;9.50;;;8.50;;
41141;SDS011;63666;52.284;20.890;2024-03-02T05:35:54;10.30;;;8.60;;
41141;SDS011;63666;52.284;20.890;2024-03-02T05:37:40;9.70;;;8.70;;
41141;SDS011;63666;52.284;20.890;2024-03-02T05:39:25;9.40;;;8.20;;
41141;SDS011;63666;52.284;20.890;2024-03-02T05:41:12;9.90;;;8.60;;
41141;SDS011;63666;52.284;20.890;2024-03-02T05:43:00;10.10;;;8.60;;
41141;SDS011;63666;52.284;20.890;2024-03-02T05:44:45;9.30;;;8.30;;
41141;SDS011;63666;52.284;20.890;2024-03-02T05:46:31;9.80;;;8.20;;
41141;SDS011;63666;52.284;20.890;2024-03-02T05:48:25;10.10;;;8.30;;
41141;SDS011;63666;52.284;20.890;2024-03-02T05:50:11;9.60;;;8.30;;
41141;SDS011;63666;52.284;20.890;2024-03-02T05:51:59;10.00;;;8.40;;
41141;SDS011;63666;52.284;20.890;2024-03-02T05:53:44;9.60;;;8.30;;
41141;SDS011;63666;52.284;20.890;2024-03-02T05:55:30;9.90;;;8.50;;
41141;SDS011;63666;52.284;20.890;2024-03-02T05:57:16;9.20;;;8.20;;
41141;SDS011;63666;52.284;20.890;2024-03-02T05:59:20;9.50;;;8.50;;
41141;SDS011;63666;52.284;20.890;2024-03-02T06:01:06;9.80;;;8.50;;
41141;SDS011;63666;52.284;20.890;2024-03-02T06:02:52;9.20;;;7.80;;
41141;SDS011;63666;52.284;20.890;2024-03-02T06:04:42;9.40;;;8.40;;
41141;SDS011;63666;52.284;20.890;2024-03-02T06:06:31;10.00;;;8.70;;
41141;SDS011;63666;52.284;20.890;2024-03-02T06:08:16;9.40;;;7.80;;
41141;SDS011;63666;52.284;20.890;2024-03-02T06:10:07;9.70;;;8.10;;
41141;SDS011;63666;52.284;20.890;2024-03-02T06:11:55;9.60;;;8.20;;
41141;SDS011;63666;52.284;20.890;2024-03-02T06:13:40;9.50;;;8.10;;
41141;SDS011;63666;52.284;20.890;2024-03-02T06:15:25;10.10;;;8.60;;
41141;SDS011;63666;52.284;20.890;2024-03-02T06:17:10;9.60;;;8.40;;
41141;SDS011;63666;52.284;20.890;2024-03-02T06:18:59;9.50;;;8.10;;
41141;SDS011;63666;52.284;20.890;2024-03-02T06:20:44;10.40;;;8.60;;
41141;SDS011;63666;52.284;20.890;2024-03-02T06:22:32;10.10;;;8.10;;
41141;SDS011;63666;52.284;20.890;2024-03-02T06:24:17;9.00;;;8.00;;
41141;SDS011;63666;52.284;20.890;2024-03-02T06:26:02;9.10;;;7.90;;
41141;SDS011;63666;52.284;20.890;2024-03-02T06:27:50;9.00;;;7.70;;
41141;SDS011;63666;52.284;20.890;2024-03-02T06:29:37;9.20;;;7.90;;
41141;SDS011;63666;52.284;20.890;2024-03-02T06:31:23;9.90;;;8.10;;
41141;SDS011;63666;52.284;20.890;2024-03-02T06:33:11;9.30;;;7.80;;
41141;SDS011;63666;52.284;20.890;2024-03-02T06:34:58;9.40;;;7.70;;
41141;SDS011;63666;52.284;20.890;2024-03-02T06:36:43;9.20;;;7.70;;
41141;SDS011;63666;52.284;20.890;2024-03-02T06:38:33;8.20;;;7.30;;
41141;SDS011;63666;52.284;20.890;2024-03-02T06:40:31;9.10;;;7.50;;
41141;SDS011;63666;52.284;20.890;2024-03-02T06:42:21;9.10;;;7.30;;
41141;SDS011;63666;52.284;20.890;2024-03-02T06:44:07;9.10;;;7.40;;
41141;SDS011;63666;52.284;20.890;2024-03-02T06:45:55;9.60;;;7.60;;
41141;SDS011;63666;52.284;20.890;2024-03-02T06:47:41;9.30;;;7.40;;
41141;SDS011;63666;52.284;20.890;2024-03-02T06:49:31;9.30;;;7.40;;
41141;SDS011;63666;52.284;20.890;2024-03-02T06:51:24;8.60;;;7.00;;
41141;SDS011;63666;52.284;20.890;2024-03-02T06:53:12;9.30;;;6.90;;
41141;SDS011;63666;52.284;20.890;2024-03-02T06:55:01;8.20;;;7.10;;
41141;SDS011;63666;52.284;20.890;2024-03-02T06:56:47;8.70;;;6.80;;
41141;SDS011;63666;52.284;20.890;2024-03-02T06:58:34;9.00;;;6.80;;
41141;SDS011;63666;52.284;20.890;2024-03-02T07:00:21;9.00;;;7.00;;
41141;SDS011;63666;52.284;20.890;2024-03-02T07:02:11;8.80;;;6.70;;
41141;SDS011;63666;52.284;20.890;2024-03-02T07:03:59;8.40;;;7.10;;
41141;SDS011;63666;52.284;20.890;2024-03-02T07:05:44;8.50;;;7.10;;
41141;SDS011;63666;52.284;20.890;2024-03-02T07:07:32;8.90;;;7.30;;
41141;SDS011;63666;52.284;20.890;2024-03-02T07:09:18;9.30;;;7.30;;
41141;SDS011;63666;52.284;20.890;2024-03-02T07:11:06;8.60;;;6.70;;
41141;SDS011;63666;52.284;20.890;2024-03-02T07:12:51;8.70;;;6.80;;
41141;SDS011;63666;52.284;20.890;2024-03-02T07:14:42;8.50;;;6.80;;
41141;SDS011;63666;52.284;20.890;2024-03-02T07:16:43;8.50;;;7.00;;
41141;SDS011;63666;52.284;20.890;2024-03-02T07:18:28;8.10;;;6.60;;
41141;SDS011;63666;52.284;20.890;2024-03-02T07:20:19;7.80;;;6.90;;
41141;SDS011;63666;52.284;20.890;2024-03-02T07:22:07;8.10;;;6.70;;
41141;SDS011;63666;52.284;20.890;2024-03-02T07:23:53;8.40;;;6.80;;
41141;SDS011;63666;52.284;20.890;2024-03-02T07:25:38;8.40;;;6.80;;
41141;SDS011;63666;52.284;20.890;2024-03-02T07:27:31;8.00;;;6.60;;
41141;SDS011;63666;52.284;20.890;2024-03-02T07:29:21;8.60;;;7.00;;
41141;SDS011;63666;52.284;20.890;2024-03-02T07:31:10;8.40;;;6.60;;
41141;SDS011;63666;52.284;20.890;2024-03-02T07:32:57;8.80;;;6.70;;
41141;SDS011;63666;52.284;20.890;2024-03-02T07:34:45;8.00;;;6.90;;
41141;SDS011;63666;52.284;20.890;2024-03-02T07:38:21;7.90;;;6.30;;
41141;SDS011;63666;52.284;20.890;2024-03-02T07:40:08;8.70;;;6.80;;
41141;SDS011;63666;52.284;20.890;2024-03-02T07:41:55;7.80;;;6.60;;
41141;SDS011;63666;52.284;20.890;2024-03-02T07:43:40;8.00;;;6.50;;
41141;SDS011;63666;52.284;20.890;2024-03-02T07:45:32;8.40;;;6.70;;
41141;SDS011;63666;52.284;20.890;2024-03-02T07:47:30;8.30;;;6.70;;
41141;SDS011;63666;52.284;20.890;2024-03-02T07:49:25;8.00;;;6.30;;
41141;SDS011;63666;52.284;20.890;2024-03-02T07:51:12;8.40;;;7.10;;
41141;SDS011;63666;52.284;20.890;2024-03-02T07:52:57;7.30;;;6.30;;
41141;SDS011;63666;52.284;20.890;2024-03-02T07:54:42;8.40;;;6.60;;
41141;SDS011;63666;52.284;20.890;2024-03-02T07:56:27;7.80;;;6.40;;
41141;SDS011;63666;52.284;20.890;2024-03-02T07:58:12;8.70;;;6.70;;
41141;SDS011;63666;52.284;20.890;2024-03-02T07:59:58;8.60;;;6.80;;
41141;SDS011;63666;52.284;20.890;2024-03-02T08:01:43;8.30;;;6.80;;
41141;SDS011;63666;52.284;20.890;2024-03-02T08:03:28;8.20;;;6.60;;
41141;SDS011;63666;52.284;20.890;2024-03-02T08:05:16;8.70;;;6.80;;
41141;SDS011;63666;52.284;20.890;2024-03-02T08:07:03;8.30;;;6.70;;
41141;SDS011;63666;52.284;20.890;2024-03-02T08:08:48;9.10;;;6.60;;
41141;SDS011;63666;52.284;20.890;2024-03-02T08:10:33;8.80;;;6.70;;
41141;SDS011;63666;52.284;20.890;2024-03-02T08:12:19;8.10;;;6.50;;
41141;SDS011;63666;52.284;20.890;2024-03-02T08:14:05;8.50;;;6.70;;
41141;SDS011;63666;52.284;20.890;2024-03-02T08:15:54;8.50;;;6.80;;
41141;SDS011;63666;52.284;20.890;2024-03-02T08:17:39;9.80;;;6.60;;
41141;SDS011;63666;52.284;20.890;2024-03-02T08:19:27;8.50;;;6.60;;
41141;SDS011;63666;52.284;20.890;2024-03-02T08:21:12;9.20;;;6.70;;
41141;SDS011;63666;52.284;20.890;2024-03-02T08:22:57;10.00;;;7.10;;
41141;SDS011;63666;52.284;20.890;2024-03-02T08:24:42;9.60;;;6.40;;
41141;SDS011;63666;52.284;20.890;2024-03-02T08:26:27;8.60;;;6.60;;
41141;SDS011;63666;52.284;20.890;2024-03-02T08:28:13;8.60;;;6.60;;
41141;SDS011;63666;52.284;20.890;2024-03-02T08:29:58;9.50;;;6.60;;
41141;SDS011;63666;52.284;20.890;2024-03-02T08:31:42;8.20;;;6.20;;
41141;SDS011;63666;52.284;20.890;2024-03-02T08:33:27;8.40;;;6.40;;
41141;SDS011;63666;52.284;20.890;2024-03-02T08:35:11;9.00;;;6.70;;
41141;SDS011;63666;52.284;20.890;2024-03-02T08:36:56;8.60;;;6.50;;
41141;SDS011;63666;52.284;20.890;2024-03-02T08:38:40;8.30;;;6.40;;
41141;SDS011;63666;52.284;20.890;2024-03-02T08:40:25;8.60;;;6.50;;
41141;SDS011;63666;52.284;20.890;2024-03-02T08:42:10;8.30;;;6.30;;
41141;SDS011;63666;52.284;20.890;2024-03-02T08:43:54;9.60;;;6.80;;
41141;SDS011;63666;52.284;20.890;2024-03-02T08:45:38;8.10;;;6.50;;
41141;SDS011;63666;52.284;20.890;2024-03-02T08:47:23;8.60;;;6.30;;
41141;SDS011;63666;52.284;20.890;2024-03-02T08:49:08;8.70;;;6.40;;
41141;SDS011;63666;52.284;20.890;2024-03-02T08:50:52;8.30;;;6.60;;
41141;SDS011;63666;52.284;20.890;2024-03-02T08:52:36;9.10;;;6.70;;
41141;SDS011;63666;52.284;20.890;2024-03-02T08:54:22;8.80;;;6.50;;
41141;SDS011;63666;52.284;20.890;2024-03-02T08:56:07;8.70;;;7.00;;
41141;SDS011;63666;52.284;20.890;2024-03-02T08:57:52;8.70;;;7.20;;
41141;SDS011;63666;52.284;20.890;2024-03-02T08:59:36;9.20;;;7.00;;
41141;SDS011;63666;52.284;20.890;2024-03-02T09:01:21;8.60;;;7.00;;
41141;SDS011;63666;52.284;20.890;2024-03-02T09:03:08;10.10;;;8.30;;
41141;SDS011;63666;52.284;20.890;2024-03-02T09:04:54;9.20;;;7.90;;
41141;SDS011;63666;52.284;20.890;2024-03-02T09:06:39;10.20;;;8.40;;
41141;SDS011;63666;52.284;20.890;2024-03-02T09:08:24;9.60;;;8.60;;
41141;SDS011;63666;52.284;20.890;2024-03-02T09:10:10;9.90;;;8.50;;
41141;SDS011;63666;52.284;20.890;2024-03-02T09:11:57;10.30;;;8.20;;
41141;SDS011;63666;52.284;20.890;2024-03-02T09:13:42;10.80;;;8.90;;
41141;SDS011;63666;52.284;20.890;2024-03-02T09:15:27;11.30;;;9.40;;
41141;SDS011;63666;52.284;20.890;2024-03-02T09:17:14;11.20;;;9.50;;
41141;SDS011;63666;52.284;20.890;2024-03-02T09:18:59;11.50;;;9.80;;
41141;SDS011;63666;52.284;20.890;2024-03-02T09:20:44;12.40;;;10.10;;
41141;SDS011;63666;52.284;20.890;2024-03-02T09:22:29;11.70;;;10.50;;
41141;SDS011;63666;52.284;20.890;2024-03-02T09:24:14;11.90;;;10.60;;
41141;SDS011;63666;52.284;20.890;2024-03-02T09:26:01;12.00;;;10.80;;
41141;SDS011;63666;52.284;20.890;2024-03-02T09:27:50;12.50;;;11.20;;
41141;SDS011;63666;52.284;20.890;2024-03-02T09:29:34;11.60;;;10.30;;
41141;SDS011;63666;52.284;20.890;2024-03-02T09:31:20;12.50;;;11.20;;
41141;SDS011;63666;52.284;20.890;2024-03-02T09:33:06;12.30;;;10.90;;
41141;SDS011;63666;52.284;20.890;2024-03-02T09:34:53;11.50;;;10.20;;
41141;SDS011;63666;52.284;20.890;2024-03-02T09:36:40;12.80;;;10.80;;
41141;SDS011;63666;52.284;20.890;2024-03-02T09:38:25;11.10;;;10.00;;
41141;SDS011;63666;52.284;20.890;2024-03-02T09:40:12;11.30;;;10.10;;
41141;SDS011;63666;52.284;20.890;2024-03-02T09:41:59;12.00;;;10.70;;
41141;SDS011;63666;52.284;20.890;2024-03-02T09:43:45;11.40;;;9.90;;
41141;SDS011;63666;52.284;20.890;2024-03-02T09:45:33;11.40;;;9.90;;
41141;SDS011;63666;52.284;20.890;2024-03-02T09:47:20;11.40;;;10.20;;
41141;SDS011;63666;52.284;20.890;2024-03-02T09:49:08;11.20;;;9.60;;
41141;SDS011;63666;52.284;20.890;2024-03-02T09:50:55;11.30;;;9.70;;
41141;SDS011;63666;52.284;20.890;2024-03-02T09:52:41;11.90;;;10.10;;
41141;SDS011;63666;52.284;20.890;2024-03-02T09:54:29;11.00;;;9.50;;
41141;SDS011;63666;52.284;20.890;2024-03-02T09:56:15;11.60;;;9.90;;
41141;SDS011;63666;52.284;20.890;2024-03-02T09:58:05;11.10;;;9.90;;
41141;SDS011;63666;52.284;20.890;2024-03-02T09:59:50;10.60;;;9.50;;
41141;SDS011;63666;52.284;20.890;2024-03-02T10:01:36;11.80;;;9.80;;
41141;SDS011;63666;52.284;20.890;2024-03-02T10:03:24;11.30;;;9.40;;
41141;SDS011;63666;52.284;20.890;2024-03-02T10:05:11;10.70;;;9.60;;
41141;SDS011;63666;52.284;20.890;2024-03-02T10:07:13;11.20;;;9.50;;
41141;SDS011;63666;52.284;20.890;2024-03-02T10:08:58;12.10;;;9.60;;
41141;SDS011;63666;52.284;20.890;2024-03-02T10:10:43;10.70;;;9.60;;
41141;SDS011;63666;52.284;20.890;2024-03-02T10:12:29;10.40;;;9.30;;
41141;SDS011;63666;52.284;20.890;2024-03-02T10:14:14;10.70;;;9.50;;
41141;SDS011;63666;52.284;20.890;2024-03-02T10:16:13;11.10;;;9.10;;
41141;SDS011;63666;52.284;20.890;2024-03-02T10:17:58;11.10;;;8.90;;
41141;SDS011;63666;52.284;20.890;2024-03-02T10:19:42;10.30;;;8.80;;
41141;SDS011;63666;52.284;20.890;2024-03-02T10:21:28;10.50;;;9.40;;
41141;SDS011;63666;52.284;20.890;2024-03-02T10:23:15;10.10;;;8.70;;
41141;SDS011;63666;52.284;20.890;2024-03-02T10:25:00;10.70;;;9.20;;
41141;SDS011;63666;52.284;20.890;2024-03-02T10:27:16;11.10;;;9.20;;
41141;SDS011;63666;52.284;20.890;2024-03-02T10:29:01;11.00;;;8.70;;
41141;SDS011;63666;52.284;20.890;2024-03-02T10:30:49;10.30;;;8.70;;